sensor_id;sensor_type;location;lat;lon;timestamp;pressure;altitude;pressure_sealevel;temperature;humidity
71778;BME280;59609;52.430;4.668;2023-06-10T00:01:26;101542.47;;;19.93;71.96
71778;BME280;59609;52.430;4.668;2023-06-10T00:03:52;101543.97;;;19.95;70.98
71778;BME280;59609;52.430;4.668;2023-06-10T00:06:18;101543.31;;;19.93;71.42
71778;BME280;59609;52.430;4.668;2023-06-10T00:08:43;101539.00;;;19.84;71.57
71778;BME280;59609;52.430;4.668;2023-06-10T00:11:09;101541.56;;;19.86;71.34
71778;BME280;59609;52.430;4.668;2023-06-10T00:13:35;101534.91;;;19.80;71.89
71778;BME280;59609;52.430;4.668;2023-06-10T00:16:01;101539.44;;;19.81;71.23
71778;BME280;59609;52.430;4.668;2023-06-10T00:18:26;101545.84;;;19.82;71.23
71778;BME280;59609;52.430;4.668;2023-06-10T00:20:52;101536.19;;;19.78;71.36
71778;BME280;59609;52.430;4.668;2023-06-10T00:23:20;101542.19;;;19.75;71.45
71778;BME280;59609;52.430;4.668;2023-06-10T00:25:46;101541.53;;;19.73;71.76
71778;BME280;59609;52.430;4.668;2023-06-10T00:28:11;101539.16;;;19.70;71.29
71778;BME280;59609;52.430;4.668;2023-06-10T00:30:37;101536.56;;;19.68;71.73
71778;BME280;59609;52.430;4.668;2023-06-10T00:33:02;101531.63;;;19.64;72.58
71778;BME280;59609;52.430;4.668;2023-06-10T00:35:27;101536.75;;;19.60;71.91
71778;BME280;59609;52.430;4.668;2023-06-10T00:37:53;101539.28;;;19.48;73.03
71778;BME280;59609;52.430;4.668;2023-06-10T00:40:18;101541.88;;;19.50;72.88
71778;BME280;59609;52.430;4.668;2023-06-10T00:42:43;101529.09;;;19.34;73.14
71778;BME280;59609;52.430;4.668;2023-06-10T00:45:09;101540.72;;;19.38;73.60
71778;BME280;59609;52.430;4.668;2023-06-10T00:47:34;101538.53;;;19.33;73.65
71778;BME280;59609;52.430;4.668;2023-06-10T00:50:00;101541.09;;;19.35;73.08
71778;BME280;59609;52.430;4.668;2023-06-10T00:52:28;101538.50;;;19.27;73.94
71778;BME280;59609;52.430;4.668;2023-06-10T00:54:54;101533.94;;;19.19;74.06
71778;BME280;59609;52.430;4.668;2023-06-10T00:57:20;101527.03;;;19.15;74.33
71778;BME280;59609;52.430;4.668;2023-06-10T00:59:48;101539.97;;;19.23;74.12
71778;BME280;59609;52.430;4.668;2023-06-10T01:02:14;101537.59;;;19.20;73.79
71778;BME280;59609;52.430;4.668;2023-06-10T01:04:39;101534.34;;;19.16;73.83
71778;BME280;59609;52.430;4.668;2023-06-10T01:10:11;101548.13;;;19.18;73.70
71778;BME280;59609;52.430;4.668;2023-06-10T01:12:46;101536.06;;;19.11;73.84
71778;BME280;59609;52.430;4.668;2023-06-10T01:15:16;101534.47;;;19.01;73.33
71778;BME280;59609;52.430;4.668;2023-06-10T01:17:58;101540.50;;;19.05;73.74
71778;BME280;59609;52.430;4.668;2023-06-10T01:20:28;101542.66;;;19.03;73.51
71778;BME280;59609;52.430;4.668;2023-06-10T01:22:54;101546.50;;;19.02;73.32
71778;BME280;59609;52.430;4.668;2023-06-10T01:25:21;101542.66;;;19.03;72.52
71778;BME280;59609;52.430;4.668;2023-06-10T01:27:54;101548.44;;;19.01;73.07
71778;BME280;59609;52.430;4.668;2023-06-10T01:30:27;101544.97;;;18.93;73.19
71778;BME280;59609;52.430;4.668;2023-06-10T01:32:58;101547.34;;;18.96;72.62
71778;BME280;59609;52.430;4.668;2023-06-10T01:35:25;101547.09;;;18.91;72.99
71778;BME280;59609;52.430;4.668;2023-06-10T01:37:53;101549.03;;;18.90;73.36
71778;BME280;59609;52.430;4.668;2023-06-10T01:40:20;101549.84;;;18.84;73.84
71778;BME280;59609;52.430;4.668;2023-06-10T01:42:46;101544.00;;;18.79;73.83
71778;BME280;59609;52.430;4.668;2023-06-10T01:45:11;101548.53;;;18.80;73.37
71778;BME280;59609;52.430;4.668;2023-06-10T01:47:37;101548.72;;;18.79;73.96
71778;BME280;59609;52.430;4.668;2023-06-10T01:50:02;101539.66;;;18.70;73.30
71778;BME280;59609;52.430;4.668;2023-06-10T01:52:28;101533.66;;;18.73;73.25
71778;BME280;59609;52.430;4.668;2023-06-10T01:54:53;101539.88;;;18.75;73.23
71778;BME280;59609;52.430;4.668;2023-06-10T01:57:18;101544.59;;;18.75;72.89
71778;BME280;59609;52.430;4.668;2023-06-10T01:59:44;101547.59;;;18.73;72.88
71778;BME280;59609;52.430;4.668;2023-06-10T02:02:11;101546.75;;;18.73;73.18
71778;BME280;59609;52.430;4.668;2023-06-10T02:04:36;101552.31;;;18.73;73.08
71778;BME280;59609;52.430;4.668;2023-06-10T02:07:02;101542.44;;;18.70;72.86
71778;BME280;59609;52.430;4.668;2023-06-10T02:09:30;101547.59;;;18.73;72.26
71778;BME280;59609;52.430;4.668;2023-06-10T02:11:55;101547.59;;;18.73;72.78
71778;BME280;59609;52.430;4.668;2023-06-10T02:14:20;101546.69;;;18.66;73.09
71778;BME280;59609;52.430;4.668;2023-06-10T02:16:46;101545.63;;;18.67;72.73
71778;BME280;59609;52.430;4.668;2023-06-10T02:19:12;101543.50;;;18.69;72.55
71778;BME280;59609;52.430;4.668;2023-06-10T02:21:38;101552.53;;;18.71;72.68
71778;BME280;59609;52.430;4.668;2023-06-10T02:24:04;101544.53;;;18.68;72.13
71778;BME280;59609;52.430;4.668;2023-06-10T02:26:29;101553.59;;;18.70;72.39
71778;BME280;59609;52.430;4.668;2023-06-10T02:28:55;101557.84;;;18.66;71.90
71778;BME280;59609;52.430;4.668;2023-06-10T02:31:20;101553.56;;;18.64;72.38
71778;BME280;59609;52.430;4.668;2023-06-10T02:33:46;101554.00;;;18.67;72.25
71778;BME280;59609;52.430;4.668;2023-06-10T02:36:11;101555.19;;;18.58;72.66
71778;BME280;59609;52.430;4.668;2023-06-10T02:38:39;101555.59;;;18.55;73.17
71778;BME280;59609;52.430;4.668;2023-06-10T02:41:05;101559.88;;;18.51;73.43
71778;BME280;59609;52.430;4.668;2023-06-10T02:43:30;101557.94;;;18.51;72.97
71778;BME280;59609;52.430;4.668;2023-06-10T02:45:56;101561.59;;;18.52;73.10
71778;BME280;59609;52.430;4.668;2023-06-10T02:48:23;101551.84;;;18.48;73.58
71778;BME280;59609;52.430;4.668;2023-06-10T02:50:49;101561.50;;;18.45;73.88
71778;BME280;59609;52.430;4.668;2023-06-10T02:53:14;101559.78;;;18.44;73.52
71778;BME280;59609;52.430;4.668;2023-06-10T02:55:40;101550.75;;;18.42;74.06
71778;BME280;59609;52.430;4.668;2023-06-10T02:58:06;101561.03;;;18.42;73.73
71778;BME280;59609;52.430;4.668;2023-06-10T03:00:32;101550.09;;;18.40;73.64
71778;BME280;59609;52.430;4.668;2023-06-10T03:02:58;101550.97;;;18.41;73.76
71778;BME280;59609;52.430;4.668;2023-06-10T03:05:25;101552.00;;;18.40;73.73
71778;BME280;59609;52.430;4.668;2023-06-10T03:07:51;101561.66;;;18.37;74.00
71778;BME280;59609;52.430;4.668;2023-06-10T03:10:16;101556.72;;;18.39;73.84
71778;BME280;59609;52.430;4.668;2023-06-10T03:12:41;101556.47;;;18.34;74.28
71778;BME280;59609;52.430;4.668;2023-06-10T03:15:07;101556.84;;;18.31;74.38
71778;BME280;59609;52.430;4.668;2023-06-10T03:17:32;101554.47;;;18.28;73.87
71778;BME280;59609;52.430;4.668;2023-06-10T03:19:58;101558.53;;;18.26;74.47
71778;BME280;59609;52.430;4.668;2023-06-10T03:22:23;101558.94;;;18.23;74.77
71778;BME280;59609;52.430;4.668;2023-06-10T03:24:48;101558.53;;;18.26;74.66
71778;BME280;59609;52.430;4.668;2023-06-10T03:27:15;101559.56;;;18.25;74.85
71778;BME280;59609;52.430;4.668;2023-06-10T03:29:41;101550.97;;;18.20;75.08
71778;BME280;59609;52.430;4.668;2023-06-10T03:32:07;101556.72;;;18.18;75.02
71778;BME280;59609;52.430;4.668;2023-06-10T03:34:33;101558.94;;;18.23;75.13
71778;BME280;59609;52.430;4.668;2023-06-10T03:36:59;101557.41;;;18.20;75.32
71778;BME280;59609;52.430;4.668;2023-06-10T03:39:25;101568.56;;;18.20;75.91
71778;BME280;59609;52.430;4.668;2023-06-10T03:41:51;101567.81;;;18.12;76.18
71778;BME280;59609;52.430;4.668;2023-06-10T03:44:16;101574.56;;;18.17;76.20
71778;BME280;59609;52.430;4.668;2023-06-10T03:46:42;101570.22;;;18.15;75.81
71778;BME280;59609;52.430;4.668;2023-06-10T03:49:07;101564.03;;;18.19;76.00
71778;BME280;59609;52.430;4.668;2023-06-10T03:51:33;101571.94;;;18.16;76.26
71778;BME280;59609;52.430;4.668;2023-06-10T03:53:58;101572.63;;;18.18;76.09
71778;BME280;59609;52.430;4.668;2023-06-10T03:56:23;101577.81;;;18.21;75.96
71778;BME280;59609;52.430;4.668;2023-06-10T03:58:49;101576.06;;;18.20;75.98
71778;BME280;59609;52.430;4.668;2023-06-10T04:01:14;101580.84;;;18.26;75.83
71778;BME280;59609;52.430;4.668;2023-06-10T04:03:40;101584.91;;;18.23;76.09
71778;BME280;59609;52.430;4.668;2023-06-10T04:06:08;101578.47;;;18.23;76.20
71778;BME280;59609;52.430;4.668;2023-06-10T04:08:33;101578.06;;;18.26;76.17
71778;BME280;59609;52.430;4.668;2023-06-10T04:10:59;101568.34;;;18.22;76.68
71778;BME280;59609;52.430;4.668;2023-06-10T04:13:24;101576.78;;;18.28;76.19
71778;BME280;59609;52.430;4.668;2023-06-10T04:15:49;101576.38;;;18.31;76.33
71778;BME280;59609;52.430;4.668;2023-06-10T04:18:15;101571.44;;;18.27;76.07
71778;BME280;59609;52.430;4.668;2023-06-10T04:20:41;101580.97;;;18.39;75.73
71778;BME280;59609;52.430;4.668;2023-06-10T04:23:06;101582.72;;;18.40;75.74
71778;BME280;59609;52.430;4.668;2023-06-10T04:25:32;101588.06;;;18.41;75.93
71778;BME280;59609;52.430;4.668;2023-06-10T04:27:57;101597.59;;;18.47;75.53
71778;BME280;59609;52.430;4.668;2023-06-10T04:30:22;101588.06;;;18.41;76.07
71778;BME280;59609;52.430;4.668;2023-06-10T04:32:48;101595.47;;;18.49;75.48
71778;BME280;59609;52.430;4.668;2023-06-10T04:35:14;101597.75;;;18.60;75.26
71778;BME280;59609;52.430;4.668;2023-06-10T04:37:40;101599.66;;;18.60;75.64
71778;BME280;59609;52.430;4.668;2023-06-10T04:40:07;101611.50;;;18.62;75.56
71778;BME280;59609;52.430;4.668;2023-06-10T04:42:32;101609.63;;;18.69;75.15
71778;BME280;59609;52.430;4.668;2023-06-10T04:44:57;101606.84;;;18.69;75.17
71778;BME280;59609;52.430;4.668;2023-06-10T04:47:23;101602.34;;;18.68;75.02
71778;BME280;59609;52.430;4.668;2023-06-10T04:49:48;101606.53;;;18.85;74.26
71778;BME280;59609;52.430;4.668;2023-06-10T04:52:14;101596.88;;;19.43;72.45
71778;BME280;59609;52.430;4.668;2023-06-10T04:54:39;101597.94;;;20.89;65.27
71778;BME280;59609;52.430;4.668;2023-06-10T04:57:06;101606.47;;;21.60;62.86
71778;BME280;59609;52.430;4.668;2023-06-10T04:59:32;101607.63;;;22.03;60.60
71778;BME280;59609;52.430;4.668;2023-06-10T05:01:58;101610.63;;;22.02;59.96
71778;BME280;59609;52.430;4.668;2023-06-10T05:04:24;101611.91;;;22.06;58.84
71778;BME280;59609;52.430;4.668;2023-06-10T05:06:49;101622.38;;;22.30;59.37
71778;BME280;59609;52.430;4.668;2023-06-10T05:09:14;101618.66;;;22.74;57.61
71778;BME280;59609;52.430;4.668;2023-06-10T05:11:40;101620.63;;;22.29;59.20
71778;BME280;59609;52.430;4.668;2023-06-10T05:14:06;101620.91;;;22.52;58.15
71778;BME280;59609;52.430;4.668;2023-06-10T05:16:31;101623.78;;;22.15;58.58
71778;BME280;59609;52.430;4.668;2023-06-10T05:18:57;101625.97;;;22.44;58.45
71778;BME280;59609;52.430;4.668;2023-06-10T05:21:22;101618.44;;;22.38;58.76
71778;BME280;59609;52.430;4.668;2023-06-10T05:23:48;101625.19;;;22.30;59.34
71778;BME280;59609;52.430;4.668;2023-06-10T05:26:13;101616.31;;;22.33;59.30
71778;BME280;59609;52.430;4.668;2023-06-10T05:28:39;101620.38;;;21.99;60.99
71778;BME280;59609;52.430;4.668;2023-06-10T05:31:04;101619.13;;;21.76;61.81
71778;BME280;59609;52.430;4.668;2023-06-10T05:33:30;101619.41;;;21.61;61.80
71778;BME280;59609;52.430;4.668;2023-06-10T05:35:55;101625.84;;;21.75;61.52
71778;BME280;59609;52.430;4.668;2023-06-10T05:38:20;101623.09;;;21.48;63.17
71778;BME280;59609;52.430;4.668;2023-06-10T05:40:46;101626.53;;;21.64;63.53
71778;BME280;59609;52.430;4.668;2023-06-10T05:43:11;101626.28;;;21.78;62.68
71778;BME280;59609;52.430;4.668;2023-06-10T05:45:37;101636.69;;;21.58;63.11
71778;BME280;59609;52.430;4.668;2023-06-10T05:48:03;101617.94;;;21.39;63.90
71778;BME280;59609;52.430;4.668;2023-06-10T05:50:28;101623.78;;;21.44;64.02
71778;BME280;59609;52.430;4.668;2023-06-10T05:52:53;101616.44;;;21.43;64.21
71778;BME280;59609;52.430;4.668;2023-06-10T05:55:20;101630.25;;;21.51;64.79
71778;BME280;59609;52.430;4.668;2023-06-10T05:57:45;101621.59;;;21.46;64.94
71778;BME280;59609;52.430;4.668;2023-06-10T06:00:11;101618.81;;;21.46;64.71
71778;BME280;59609;52.430;4.668;2023-06-10T06:02:37;101622.19;;;21.74;63.79
71778;BME280;59609;52.430;4.668;2023-06-10T06:05:02;101625.00;;;21.74;63.91
71778;BME280;59609;52.430;4.668;2023-06-10T06:07:28;101625.84;;;21.75;62.59
71778;BME280;59609;52.430;4.668;2023-06-10T06:09:53;101632.97;;;21.71;63.65
71778;BME280;59609;52.430;4.668;2023-06-10T06:12:19;101623.47;;;21.78;64.02
71778;BME280;59609;52.430;4.668;2023-06-10T06:14:44;101628.19;;;21.84;63.39
71778;BME280;59609;52.430;4.668;2023-06-10T06:17:10;101627.94;;;21.92;62.71
71778;BME280;59609;52.430;4.668;2023-06-10T06:19:35;101632.47;;;22.00;63.37
71778;BME280;59609;52.430;4.668;2023-06-10T06:22:01;101620.72;;;22.16;61.43
71778;BME280;59609;52.430;4.668;2023-06-10T06:24:26;101630.50;;;22.07;62.83
71778;BME280;59609;52.430;4.668;2023-06-10T06:26:51;101632.97;;;22.22;61.53
71778;BME280;59609;52.430;4.668;2023-06-10T06:29:17;101631.66;;;22.31;61.65
71778;BME280;59609;52.430;4.668;2023-06-10T06:31:43;101631.00;;;22.29;61.77
71778;BME280;59609;52.430;4.668;2023-06-10T06:34:08;101629.44;;;22.39;61.05
71778;BME280;59609;52.430;4.668;2023-06-10T06:36:34;101634.25;;;22.70;61.03
71778;BME280;59609;52.430;4.668;2023-06-10T06:38:59;101633.31;;;22.76;59.26
71778;BME280;59609;52.430;4.668;2023-06-10T06:41:27;101636.09;;;22.83;59.19
71778;BME280;59609;52.430;4.668;2023-06-10T06:43:56;101640.22;;;22.80;58.47
71778;BME280;59609;52.430;4.668;2023-06-10T06:46:21;101631.38;;;22.77;59.01
71778;BME280;59609;52.430;4.668;2023-06-10T06:48:47;101636.19;;;23.19;58.68
71778;BME280;59609;52.430;4.668;2023-06-10T06:51:13;101642.34;;;23.09;59.16
71778;BME280;59609;52.430;4.668;2023-06-10T06:53:39;101634.50;;;23.18;58.20
71778;BME280;59609;52.430;4.668;2023-06-10T06:56:12;101639.41;;;23.47;57.74
71778;BME280;59609;52.430;4.668;2023-06-10T06:58:38;101640.06;;;23.25;57.39
71778;BME280;59609;52.430;4.668;2023-06-10T07:01:03;101643.25;;;23.53;58.30
71778;BME280;59609;52.430;4.668;2023-06-10T07:03:28;101643.50;;;23.51;56.85
71778;BME280;59609;52.430;4.668;2023-06-10T07:05:54;101640.94;;;23.68;57.26
71778;BME280;59609;52.430;4.668;2023-06-10T07:08:19;101643.91;;;23.91;56.76
71778;BME280;59609;52.430;4.668;2023-06-10T07:10:45;101643.13;;;23.84;56.67
71778;BME280;59609;52.430;4.668;2023-06-10T07:13:10;101643.09;;;23.66;57.20
71778;BME280;59609;52.430;4.668;2023-06-10T07:15:35;101645.84;;;23.91;56.05
71778;BME280;59609;52.430;4.668;2023-06-10T07:18:01;101638.41;;;23.96;55.71
71778;BME280;59609;52.430;4.668;2023-06-10T07:20:26;101647.63;;;24.03;56.51
71778;BME280;59609;52.430;4.668;2023-06-10T07:22:51;101642.13;;;24.08;56.30
71778;BME280;59609;52.430;4.668;2023-06-10T07:25:17;101639.22;;;24.22;55.31
71778;BME280;59609;52.430;4.668;2023-06-10T07:27:42;101645.59;;;24.10;55.45
71778;BME280;59609;52.430;4.668;2023-06-10T07:30:08;101649.94;;;24.43;55.16
71778;BME280;59609;52.430;4.668;2023-06-10T07:32:34;101635.28;;;24.04;54.56
71778;BME280;59609;52.430;4.668;2023-06-10T07:34:59;101647.94;;;24.32;56.39
71778;BME280;59609;52.430;4.668;2023-06-10T07:37:24;101645.88;;;24.39;54.33
71778;BME280;59609;52.430;4.668;2023-06-10T07:39:50;101649.81;;;24.38;54.99
71778;BME280;59609;52.430;4.668;2023-06-10T07:42:15;101654.38;;;24.50;53.88
71778;BME280;59609;52.430;4.668;2023-06-10T07:44:41;101660.53;;;24.59;53.31
71778;BME280;59609;52.430;4.668;2023-06-10T07:47:06;101661.19;;;24.73;53.29
71778;BME280;59609;52.430;4.668;2023-06-10T07:49:31;101658.16;;;24.74;53.94
71778;BME280;59609;52.430;4.668;2023-06-10T07:51:57;101657.50;;;24.90;53.09
71778;BME280;59609;52.430;4.668;2023-06-10T07:54:22;101647.25;;;24.78;52.89
71778;BME280;59609;52.430;4.668;2023-06-10T07:56:48;101667.47;;;25.16;53.10
71778;BME280;59609;52.430;4.668;2023-06-10T07:59:13;101659.75;;;25.12;53.28
71778;BME280;59609;52.430;4.668;2023-06-10T08:01:39;101661.81;;;25.16;52.85
71778;BME280;59609;52.430;4.668;2023-06-10T08:04:05;101665.16;;;25.25;52.28
71778;BME280;59609;52.430;4.668;2023-06-10T08:06:31;101660.84;;;25.45;52.01
71778;BME280;59609;52.430;4.668;2023-06-10T08:08:56;101663.47;;;25.82;51.50
71778;BME280;59609;52.430;4.668;2023-06-10T08:11:22;101663.78;;;26.08;50.51
71778;BME280;59609;52.430;4.668;2023-06-10T08:13:47;101659.88;;;25.86;49.85
71778;BME280;59609;52.430;4.668;2023-06-10T08:16:12;101654.22;;;25.86;50.84
71778;BME280;59609;52.430;4.668;2023-06-10T08:18:38;101668.81;;;26.06;49.45
71778;BME280;59609;52.430;4.668;2023-06-10T08:21:03;101658.16;;;25.97;50.66
71778;BME280;59609;52.430;4.668;2023-06-10T08:23:29;101661.09;;;26.02;49.42
71778;BME280;59609;52.430;4.668;2023-06-10T08:25:54;101667.81;;;26.52;49.71
71778;BME280;59609;52.430;4.668;2023-06-10T08:28:19;101659.22;;;26.19;49.75
71778;BME280;59609;52.430;4.668;2023-06-10T08:30:45;101666.38;;;26.50;49.76
71778;BME280;59609;52.430;4.668;2023-06-10T08:33:10;101652.72;;;25.95;48.60
71778;BME280;59609;52.430;4.668;2023-06-10T08:35:36;101662.53;;;26.28;48.19
71778;BME280;59609;52.430;4.668;2023-06-10T08:38:01;101659.50;;;26.46;48.40
71778;BME280;59609;52.430;4.668;2023-06-10T08:40:26;101658.78;;;26.67;47.66
71778;BME280;59609;52.430;4.668;2023-06-10T08:43:06;101657.22;;;26.59;48.48
71778;BME280;59609;52.430;4.668;2023-06-10T08:45:35;101667.13;;;27.19;46.81
71778;BME280;59609;52.430;4.668;2023-06-10T08:48:03;101664.38;;;27.24;46.25
71778;BME280;59609;52.430;4.668;2023-06-10T08:50:36;101670.03;;;27.24;45.80
71778;BME280;59609;52.430;4.668;2023-06-10T08:53:04;101670.44;;;27.66;45.79
71778;BME280;59609;52.430;4.668;2023-06-10T08:55:31;101673.31;;;27.49;46.03
71778;BME280;59609;52.430;4.668;2023-06-10T08:57:59;101671.78;;;27.58;44.50
71778;BME280;59609;52.430;4.668;2023-06-10T09:00:26;101667.91;;;27.64;43.90
71778;BME280;59609;52.430;4.668;2023-06-10T09:02:52;101672.91;;;27.95;45.22
71778;BME280;59609;52.430;4.668;2023-06-10T09:05:18;101668.25;;;28.06;45.73
71778;BME280;59609;52.430;4.668;2023-06-10T09:07:45;101672.03;;;27.95;45.64
71778;BME280;59609;52.430;4.668;2023-06-10T09:10:11;101672.91;;;27.95;43.33
71778;BME280;59609;52.430;4.668;2023-06-10T09:12:37;101676.41;;;27.86;44.42
71778;BME280;59609;52.430;4.668;2023-06-10T09:15:04;101670.56;;;27.54;44.57
71778;BME280;59609;52.430;4.668;2023-06-10T09:17:29;101679.78;;;27.83;44.37
71778;BME280;59609;52.430;4.668;2023-06-10T09:19:55;101672.50;;;27.37;45.94
71778;BME280;59609;52.430;4.668;2023-06-10T09:22:23;101665.88;;;27.81;45.10
71778;BME280;59609;52.430;4.668;2023-06-10T09:24:49;101676.06;;;27.82;44.99
71778;BME280;59609;52.430;4.668;2023-06-10T09:27:15;101666.19;;;28.23;43.45
71778;BME280;59609;52.430;4.668;2023-06-10T09:29:47;101671.66;;;28.51;44.11
71778;BME280;59609;52.430;4.668;2023-06-10T09:32:18;101666.31;;;28.55;43.95
71778;BME280;59609;52.430;4.668;2023-06-10T09:34:44;101668.19;;;28.44;44.44
71778;BME280;59609;52.430;4.668;2023-06-10T09:37:09;101670.53;;;28.74;43.28
71778;BME280;59609;52.430;4.668;2023-06-10T09:39:37;101674.63;;;28.40;42.98
71778;BME280;59609;52.430;4.668;2023-06-10T09:42:15;101673.72;;;28.34;43.20
71778;BME280;59609;52.430;4.668;2023-06-10T09:44:41;101671.00;;;28.66;43.42
71778;BME280;59609;52.430;4.668;2023-06-10T09:47:07;101677.31;;;28.73;42.66
71778;BME280;59609;52.430;4.668;2023-06-10T09:49:32;101677.72;;;28.60;42.36
71778;BME280;59609;52.430;4.668;2023-06-10T09:51:58;101667.16;;;28.29;41.85
71778;BME280;59609;52.430;4.668;2023-06-10T09:54:31;101675.31;;;28.95;41.91
71778;BME280;59609;52.430;4.668;2023-06-10T09:56:57;101674.16;;;28.96;43.06
71778;BME280;59609;52.430;4.668;2023-06-10T09:59:30;101678.03;;;28.85;43.25
71778;BME280;59609;52.430;4.668;2023-06-10T10:01:57;101681.56;;;28.71;42.04
71778;BME280;59609;52.430;4.668;2023-06-10T10:04:26;101681.38;;;28.82;42.89
71778;BME280;59609;52.430;4.668;2023-06-10T10:06:52;101673.72;;;29.09;41.46
71778;BME280;59609;52.430;4.668;2023-06-10T10:09:18;101672.84;;;29.36;41.80
71778;BME280;59609;52.430;4.668;2023-06-10T10:11:44;101671.00;;;29.51;41.37
71778;BME280;59609;52.430;4.668;2023-06-10T10:14:11;101677.50;;;29.84;40.65
71778;BME280;59609;52.430;4.668;2023-06-10T10:16:40;101681.13;;;29.42;40.76
71778;BME280;59609;52.430;4.668;2023-06-10T10:19:31;101671.03;;;29.25;40.71
71778;BME280;59609;52.430;4.668;2023-06-10T10:22:08;101663.19;;;29.37;40.57
71778;BME280;59609;52.430;4.668;2023-06-10T10:24:44;101671.94;;;29.62;40.44
71778;BME280;59609;52.430;4.668;2023-06-10T10:27:40;101672.25;;;30.12;39.43
71778;BME280;59609;52.430;4.668;2023-06-10T10:30:02;101672.81;;;29.73;40.34
71778;BME280;59609;52.430;4.668;2023-06-10T10:33:04;101669.88;;;29.94;40.36
71778;BME280;59609;52.430;4.668;2023-06-10T10:35:30;101672.44;;;29.59;40.02
71778;BME280;59609;52.430;4.668;2023-06-10T10:37:57;101661.19;;;29.74;39.91
71778;BME280;59609;52.430;4.668;2023-06-10T10:40:25;101666.69;;;29.86;38.72
71778;BME280;59609;52.430;4.668;2023-06-10T10:42:52;101657.66;;;29.94;39.02
71778;BME280;59609;52.430;4.668;2023-06-10T10:45:18;101665.50;;;30.29;38.42
71778;BME280;59609;52.430;4.668;2023-06-10T10:47:45;101665.63;;;30.49;39.23
71778;BME280;59609;52.430;4.668;2023-06-10T10:50:18;101670.84;;;30.92;37.63
71778;BME280;59609;52.430;4.668;2023-06-10T10:52:55;101666.91;;;31.24;37.30
71778;BME280;59609;52.430;4.668;2023-06-10T10:55:22;101661.47;;;30.97;35.70
71778;BME280;59609;52.430;4.668;2023-06-10T10:57:58;101663.16;;;30.88;37.18
71778;BME280;59609;52.430;4.668;2023-06-10T11:00:28;101663.47;;;30.96;37.44
71778;BME280;59609;52.430;4.668;2023-06-10T11:02:58;101661.97;;;30.69;36.80
71778;BME280;59609;52.430;4.668;2023-06-10T11:08:09;101655.22;;;31.30;36.65
71778;BME280;59609;52.430;4.668;2023-06-10T11:13:10;101659.78;;;31.26;35.99
71778;BME280;59609;52.430;4.668;2023-06-10T11:15:49;101658.34;;;31.13;35.97
71778;BME280;59609;52.430;4.668;2023-06-10T11:18:24;101657.78;;;31.72;36.25
71778;BME280;59609;52.430;4.668;2023-06-10T11:20:52;101654.88;;;32.02;34.91
71778;BME280;59609;52.430;4.668;2023-06-10T11:28:40;101633.53;;;31.70;34.57
71778;BME280;59609;52.430;4.668;2023-06-10T11:31:06;101645.44;;;32.02;34.57
71778;BME280;59609;52.430;4.668;2023-06-10T11:33:32;101642.97;;;31.70;33.53
71778;BME280;59609;52.430;4.668;2023-06-10T11:35:58;101648.06;;;31.88;34.28
71778;BME280;59609;52.430;4.668;2023-06-10T11:38:24;101644.91;;;32.05;34.02
71778;BME280;59609;52.430;4.668;2023-06-10T11:40:50;101644.66;;;31.81;34.60
71778;BME280;59609;52.430;4.668;2023-06-10T11:43:17;101646.13;;;31.53;33.47
71778;BME280;59609;52.430;4.668;2023-06-10T11:45:43;101642.41;;;31.68;32.41
71778;BME280;59609;52.430;4.668;2023-06-10T11:48:09;101642.97;;;31.60;33.14
71778;BME280;59609;52.430;4.668;2023-06-10T11:50:35;101636.75;;;32.37;33.45
71778;BME280;59609;52.430;4.668;2023-06-10T11:53:01;101637.94;;;32.31;32.89
71778;BME280;59609;52.430;4.668;2023-06-10T11:55:46;101632.13;;;32.46;32.91
71778;BME280;59609;52.430;4.668;2023-06-10T11:58:19;101634.91;;;32.07;32.08
71778;BME280;59609;52.430;4.668;2023-06-10T12:00:49;101633.72;;;32.19;32.53
71778;BME280;59609;52.430;4.668;2023-06-10T12:03:16;101637.72;;;32.18;32.33
71778;BME280;59609;52.430;4.668;2023-06-10T12:05:58;101629.03;;;32.92;31.26
71778;BME280;59609;52.430;4.668;2023-06-10T12:08:24;101615.38;;;32.35;31.94
71778;BME280;59609;52.430;4.668;2023-06-10T12:10:49;101625.63;;;32.41;31.68
71778;BME280;59609;52.430;4.668;2023-06-10T12:13:15;101625.13;;;32.24;32.26
71778;BME280;59609;52.430;4.668;2023-06-10T12:15:43;101623.28;;;32.58;31.32
71778;BME280;59609;52.430;4.668;2023-06-10T12:18:16;101620.41;;;32.53;31.17
71778;BME280;59609;52.430;4.668;2023-06-10T12:20:41;101614.75;;;32.92;31.44
71778;BME280;59609;52.430;4.668;2023-06-10T12:23:11;101605.13;;;33.17;31.08
71778;BME280;59609;52.430;4.668;2023-06-10T12:25:38;101617.81;;;32.61;31.60
71778;BME280;59609;52.430;4.668;2023-06-10T12:28:04;101612.31;;;32.70;31.21
71778;BME280;59609;52.430;4.668;2023-06-10T12:30:30;101617.16;;;32.75;31.15
71778;BME280;59609;52.430;4.668;2023-06-10T12:32:56;101611.84;;;32.58;31.77
71778;BME280;59609;52.430;4.668;2023-06-10T12:35:27;101601.94;;;32.40;32.08
71778;BME280;59609;52.430;4.668;2023-06-10T12:38:02;101606.28;;;32.77;32.05
71778;BME280;59609;52.430;4.668;2023-06-10T12:40:37;101605.78;;;33.03;31.13
71778;BME280;59609;52.430;4.668;2023-06-10T12:43:05;101601.09;;;33.51;30.03
71778;BME280;59609;52.430;4.668;2023-06-10T12:45:33;101602.38;;;33.69;31.22
71778;BME280;59609;52.430;4.668;2023-06-10T12:48:17;101597.66;;;33.26;30.94
71778;BME280;59609;52.430;4.668;2023-06-10T12:50:43;101599.03;;;33.57;29.50
71778;BME280;59609;52.430;4.668;2023-06-10T12:53:10;101604.25;;;33.50;29.20
71778;BME280;59609;52.430;4.668;2023-06-10T12:55:36;101603.28;;;33.88;29.24
71778;BME280;59609;52.430;4.668;2023-06-10T12:58:01;101602.06;;;33.94;29.57
71778;BME280;59609;52.430;4.668;2023-06-10T13:00:28;101597.97;;;33.48;29.91
71778;BME280;59609;52.430;4.668;2023-06-10T13:02:56;101589.22;;;33.39;29.30